sensor_id;sensor_type;location;lat;lon;timestamp;pressure;altitude;pressure_sealevel;temperature;humidity
43683;BME280;29285;52.128;21.060;2022-07-22T02:04:19;100373.02;;;22.57;51.96
43683;BME280;29285;52.128;21.060;2022-07-22T02:09:20;100376.98;;;22.50;52.06
43683;BME280;29285;52.128;21.060;2022-07-22T02:14:21;100375.33;;;22.42;52.20
43683;BME280;29285;52.128;21.060;2022-07-22T02:19:23;100394.29;;;22.35;52.33
43683;BME280;29285;52.128;21.060;2022-07-22T02:24:24;100402.25;;;22.28;52.48
43683;BME280;29285;52.128;21.060;2022-07-22T02:29:25;100406.81;;;22.19;52.63
43683;BME280;29285;52.128;21.060;2022-07-22T02:34:27;100396.70;;;22.18;52.83
43683;BME280;29285;52.128;21.060;2022-07-22T02:39:28;100400.22;;;22.12;53.02
43683;BME280;29285;52.128;21.060;2022-07-22T02:44:29;100407.32;;;21.97;53.06
43683;BME280;29285;52.128;21.060;2022-07-22T02:49:30;100404.78;;;21.88;53.20
43683;BME280;29285;52.128;21.060;2022-07-22T02:54:32;100404.41;;;21.87;53.45
43683;BME280;29285;52.128;21.060;2022-07-22T02:59:33;100420.22;;;21.74;53.49
43683;BME280;29285;52.128;21.060;2022-07-22T03:04:35;100424.34;;;21.71;53.70
43683;BME280;29285;52.128;21.060;2022-07-22T03:09:36;100403.29;;;21.76;53.99
43683;BME280;29285;52.128;21.060;2022-07-22T03:14:37;100407.63;;;21.92;54.30
43683;BME280;29285;52.128;21.060;2022-07-22T03:19:38;100402.70;;;22.00;54.43
43683;BME280;29285;52.128;21.060;2022-07-22T03:24:39;100406.30;;;21.92;54.27
43683;BME280;29285;52.128;21.060;2022-07-22T03:29:41;100398.08;;;21.89;54.35
43683;BME280;29285;52.128;21.060;2022-07-22T03:34:42;100398.38;;;21.85;54.38
43683;BME280;29285;52.128;21.060;2022-07-22T03:39:43;100401.02;;;21.85;54.51
43683;BME280;29285;52.128;21.060;2022-07-22T03:44:44;100406.97;;;21.88;54.68
43683;BME280;29285;52.128;21.060;2022-07-22T03:49:48;100414.92;;;21.88;54.75
43683;BME280;29285;52.128;21.060;2022-07-22T03:54:50;100406.67;;;21.93;54.88
43683;BME280;29285;52.128;21.060;2022-07-22T03:59:51;100401.19;;;21.89;54.92
43683;BME280;29285;52.128;21.060;2022-07-22T04:04:52;100398.91;;;21.97;55.10
43683;BME280;29285;52.128;21.060;2022-07-22T04:09:53;100406.09;;;22.02;55.20
43683;BME280;29285;52.128;21.060;2022-07-22T04:14:56;100419.16;;;22.05;55.25
43683;BME280;29285;52.128;21.060;2022-07-22T04:19:58;100416.87;;;22.06;55.28
43683;BME280;29285;52.128;21.060;2022-07-22T04:25:01;100420.64;;;22.09;55.38
43683;BME280;29285;52.128;21.060;2022-07-22T04:30:03;100428.13;;;22.17;55.52
43683;BME280;29285;52.128;21.060;2022-07-22T04:35:05;100413.34;;;22.28;55.67
43683;BME280;29285;52.128;21.060;2022-07-22T04:40:07;100421.72;;;22.34;55.73
43683;BME280;29285;52.128;21.060;2022-07-22T04:45:09;100416.66;;;22.52;55.91
43683;BME280;29285;52.128;21.060;2022-07-22T04:50:11;100411.12;;;22.90;56.45
43683;BME280;29285;52.128;21.060;2022-07-22T04:55:12;100414.74;;;23.22;56.59
43683;BME280;29285;52.128;21.060;2022-07-22T05:00:14;100410.27;;;23.43;56.55
43683;BME280;29285;52.128;21.060;2022-07-22T05:05:17;100413.61;;;23.52;56.33
43683;BME280;29285;52.128;21.060;2022-07-22T05:10:19;100408.55;;;23.68;56.30
43683;BME280;29285;52.128;21.060;2022-07-22T05:15:20;100406.55;;;23.90;56.40
43683;BME280;29285;52.128;21.060;2022-07-22T05:20:22;100404.11;;;24.05;56.37
43683;BME280;29285;52.128;21.060;2022-07-22T05:25:23;100404.62;;;24.24;56.38
43683;BME280;29285;52.128;21.060;2022-07-22T05:30:24;100396.95;;;24.38;56.34
43683;BME280;29285;52.128;21.060;2022-07-22T05:35:26;100400.05;;;24.56;56.34
43683;BME280;29285;52.128;21.060;2022-07-22T05:40:28;100405.34;;;24.75;56.40
43683;BME280;29285;52.128;21.060;2022-07-22T05:45:29;100400.58;;;24.91;56.38
43683;BME280;29285;52.128;21.060;2022-07-22T05:50:31;100403.03;;;25.06;56.25
43683;BME280;29285;52.128;21.060;2022-07-22T05:55:32;100403.80;;;25.19;56.13
43683;BME280;29285;52.128;21.060;2022-07-22T06:00:33;100405.85;;;25.33;55.94
43683;BME280;29285;52.128;21.060;2022-07-22T06:05:35;100401.62;;;25.47;55.82
43683;BME280;29285;52.128;21.060;2022-07-22T06:10:38;100400.23;;;25.55;55.57
43683;BME280;29285;52.128;21.060;2022-07-22T06:15:40;100406.64;;;25.63;55.31
43683;BME280;29285;52.128;21.060;2022-07-22T06:20:41;100399.61;;;25.74;55.15
43683;BME280;29285;52.128;21.060;2022-07-22T06:25:43;100412.08;;;25.73;54.79
43683;BME280;29285;52.128;21.060;2022-07-22T06:30:44;100406.52;;;25.82;54.67
43683;BME280;29285;52.128;21.060;2022-07-22T06:35:46;100403.36;;;25.88;54.48
43683;BME280;29285;52.128;21.060;2022-07-22T06:40:47;100412.06;;;25.96;54.29
43683;BME280;29285;52.128;21.060;2022-07-22T06:45:48;100405.41;;;25.90;53.86
43683;BME280;29285;52.128;21.060;2022-07-22T06:50:50;100421.62;;;25.93;53.61
43683;BME280;29285;52.128;21.060;2022-07-22T06:55:51;100414.73;;;25.96;53.38
43683;BME280;29285;52.128;21.060;2022-07-22T07:00:53;100419.06;;;26.09;53.20
43683;BME280;29285;52.128;21.060;2022-07-22T07:05:54;100413.34;;;26.19;53.01
43683;BME280;29285;52.128;21.060;2022-07-22T07:10:55;100417.11;;;26.22;52.72
43683;BME280;29285;52.128;21.060;2022-07-22T07:15:57;100413.49;;;26.29;52.51
43683;BME280;29285;52.128;21.060;2022-07-22T07:20:58;100413.72;;;26.32;52.20
43683;BME280;29285;52.128;21.060;2022-07-22T07:26:00;100406.43;;;26.34;51.86
43683;BME280;29285;52.128;21.060;2022-07-22T07:31:02;100402.62;;;26.48;51.76
43683;BME280;29285;52.128;21.060;2022-07-22T07:36:04;100394.83;;;26.62;51.58
43683;BME280;29285;52.128;21.060;2022-07-22T07:41:06;100401.68;;;26.70;51.31
43683;BME280;29285;52.128;21.060;2022-07-22T07:46:07;100399.33;;;26.82;51.09
43683;BME280;29285;52.128;21.060;2022-07-22T07:51:09;100391.27;;;26.88;50.84
43683;BME280;29285;52.128;21.060;2022-07-22T07:56:10;100396.97;;;26.95;50.59
43683;BME280;29285;52.128;21.060;2022-07-22T08:01:11;100386.48;;;27.09;50.49
43683;BME280;29285;52.128;21.060;2022-07-22T08:06:12;100383.66;;;27.26;50.21
43683;BME280;29285;52.128;21.060;2022-07-22T08:11:14;100385.95;;;27.46;49.53
43683;BME280;29285;52.128;21.060;2022-07-22T08:16:16;100381.20;;;27.66;49.01
43683;BME280;29285;52.128;21.060;2022-07-22T08:21:17;100377.71;;;27.75;48.36
43683;BME280;29285;52.128;21.060;2022-07-22T08:26:19;100374.66;;;27.90;47.34
43683;BME280;29285;52.128;21.060;2022-07-22T08:31:20;100383.33;;;27.97;46.11
43683;BME280;29285;52.128;21.060;2022-07-22T08:36:22;100376.89;;;28.20;45.55
43683;BME280;29285;52.128;21.060;2022-07-22T08:41:24;100375.74;;;28.28;45.25
43683;BME280;29285;52.128;21.060;2022-07-22T08:46:26;100375.74;;;28.28;45.25
43683;BME280;29285;52.128;21.060;2022-07-22T08:51:28;100368.41;;;28.50;45.00
43683;BME280;29285;52.128;21.060;2022-07-22T08:56:29;100368.41;;;28.50;45.00
43683;BME280;29285;52.128;21.060;2022-07-22T09:01:30;100358.63;;;28.64;44.38
43683;BME280;29285;52.128;21.060;2022-07-22T09:06:32;100358.63;;;28.64;44.38
43683;BME280;29285;52.128;21.060;2022-07-22T09:11:36;100340.37;;;28.64;44.06
43683;BME280;29285;52.128;21.060;2022-07-22T09:16:42;100340.37;;;28.64;44.06
43683;BME280;29285;52.128;21.060;2022-07-22T09:21:45;100362.75;;;28.83;43.74
43683;BME280;29285;52.128;21.060;2022-07-22T09:26:48;100365.22;;;28.90;43.64
43683;BME280;29285;52.128;21.060;2022-07-22T09:31:51;100368.65;;;28.96;43.62
43683;BME280;29285;52.128;21.060;2022-07-22T09:36:59;100375.20;;;29.08;43.69
43683;BME280;29285;52.128;21.060;2022-07-22T09:42:04;100372.07;;;29.12;43.66
43683;BME280;29285;52.128;21.060;2022-07-22T09:47:26;100377.29;;;29.14;43.60
43683;BME280;29285;52.128;21.060;2022-07-22T09:52:30;100384.05;;;29.18;43.68
43683;BME280;29285;52.128;21.060;2022-07-22T09:57:31;100384.05;;;29.18;43.68
43683;BME280;29285;52.128;21.060;2022-07-22T10:02:33;100379.23;;;29.22;43.68
43683;BME280;29285;52.128;21.060;2022-07-22T10:07:38;100350.35;;;28.91;43.48
43683;BME280;29285;52.128;21.060;2022-07-22T10:12:42;100380.63;;;29.02;43.54
43683;BME280;29285;52.128;21.060;2022-07-22T10:17:47;100368.64;;;29.06;43.57
43683;BME280;29285;52.128;21.060;2022-07-22T10:23:01;100367.37;;;29.10;43.68
43683;BME280;29285;52.128;21.060;2022-07-22T10:28:05;100360.73;;;29.14;43.58
43683;BME280;29285;52.128;21.060;2022-07-22T10:33:12;100368.27;;;29.29;43.62
43683;BME280;29285;52.128;21.060;2022-07-22T10:38:15;100366.25;;;29.41;43.62
43683;BME280;29285;52.128;21.060;2022-07-22T10:43:24;100363.78;;;29.53;43.63
43683;BME280;29285;52.128;21.060;2022-07-22T10:54:00;100362.34;;;29.73;43.53
43683;BME280;29285;52.128;21.060;2022-07-22T10:59:14;100357.15;;;29.90;43.31
43683;BME280;29285;52.128;21.060;2022-07-22T11:04:23;100354.83;;;30.09;43.13
43683;BME280;29285;52.128;21.060;2022-07-22T11:09:33;100353.33;;;30.24;42.92
43683;BME280;29285;52.128;21.060;2022-07-22T11:14:35;100357.66;;;30.40;42.42
43683;BME280;29285;52.128;21.060;2022-07-22T11:19:38;100354.39;;;30.50;42.04
43683;BME280;29285;52.128;21.060;2022-07-22T11:24:40;100348.47;;;30.69;41.91
43683;BME280;29285;52.128;21.060;2022-07-22T11:29:42;100345.80;;;30.91;41.71
43683;BME280;29285;52.128;21.060;2022-07-22T11:34:46;100342.90;;;31.11;41.39
43683;BME280;29285;52.128;21.060;2022-07-22T11:39:48;100340.34;;;31.32;41.08
43683;BME280;29285;52.128;21.060;2022-07-22T11:44:50;100343.45;;;31.49;40.73
43683;BME280;29285;52.128;21.060;2022-07-22T11:49:52;100337.12;;;31.71;40.47
43683;BME280;29285;52.128;21.060;2022-07-22T11:54:53;100333.08;;;31.67;39.95
43683;BME280;29285;52.128;21.060;2022-07-22T12:00:05;100337.30;;;31.74;39.78
43683;BME280;29285;52.128;21.060;2022-07-22T12:05:07;100336.11;;;31.64;39.49
43683;BME280;29285;52.128;21.060;2022-07-22T12:10:09;100337.09;;;31.54;39.43
43683;BME280;29285;52.128;21.060;2022-07-22T12:15:11;100337.02;;;31.34;39.31
43683;BME280;29285;52.128;21.060;2022-07-22T12:20:12;100341.28;;;31.18;39.33
43683;BME280;29285;52.128;21.060;2022-07-22T12:25:14;100334.45;;;30.97;39.32
43683;BME280;29285;52.128;21.060;2022-07-22T12:30:17;100336.59;;;31.24;39.62
43683;BME280;29285;52.128;21.060;2022-07-22T12:35:18;100328.02;;;31.55;39.72
43683;BME280;29285;52.128;21.060;2022-07-22T12:40:21;100322.70;;;31.80;39.60
43683;BME280;29285;52.128;21.060;2022-07-22T12:45:23;100315.36;;;32.07;39.44
43683;BME280;29285;52.128;21.060;2022-07-22T12:50:34;100306.28;;;32.33;39.30
43683;BME280;29285;52.128;21.060;2022-07-22T12:55:39;100308.69;;;32.45;38.84
43683;BME280;29285;52.128;21.060;2022-07-22T13:00:48;100302.42;;;32.65;38.74
43683;BME280;29285;52.128;21.060;2022-07-22T13:05:57;100304.91;;;32.83;38.53
43683;BME280;29285;52.128;21.060;2022-07-22T13:10:57;100294.33;;;32.82;38.08
43683;BME280;29285;52.128;21.060;2022-07-22T13:15:59;100292.45;;;32.86;37.78
43683;BME280;29285;52.128;21.060;2022-07-22T13:21:00;100290.77;;;32.90;37.45
43683;BME280;29285;52.128;21.060;2022-07-22T13:26:01;100289.02;;;33.09;37.42
43683;BME280;29285;52.128;21.060;2022-07-22T13:31:03;100292.02;;;33.19;37.21
43683;BME280;29285;52.128;21.060;2022-07-22T13:36:05;100285.81;;;33.14;36.91
43683;BME280;29285;52.128;21.060;2022-07-22T13:41:06;100283.11;;;33.18;36.75
43683;BME280;29285;52.128;21.060;2022-07-22T13:46:09;100278.81;;;33.36;36.82
43683;BME280;29285;52.128;21.060;2022-07-22T13:51:11;100282.30;;;33.45;36.57
43683;BME280;29285;52.128;21.060;2022-07-22T13:56:12;100279.05;;;33.50;36.43
43683;BME280;29285;52.128;21.060;2022-07-22T14:01:13;100274.66;;;33.61;36.31
43683;BME280;29285;52.128;21.060;2022-07-22T14:06:15;100280.53;;;33.88;36.22
43683;BME280;29285;52.128;21.060;2022-07-22T14:11:16;100274.50;;;34.05;36.02
43683;BME280;29285;52.128;21.060;2022-07-22T14:16:17;100273.14;;;34.29;35.96
43683;BME280;29285;52.128;21.060;2022-07-22T14:21:35;100262.84;;;34.48;35.57
43683;BME280;29285;52.128;21.060;2022-07-22T14:26:37;100268.52;;;34.18;34.78
43683;BME280;29285;52.128;21.060;2022-07-22T14:31:39;100268.16;;;34.22;34.77
43683;BME280;29285;52.128;21.060;2022-07-22T14:36:40;100272.73;;;34.36;34.77
43683;BME280;29285;52.128;21.060;2022-07-22T14:41:41;100270.17;;;34.58;34.76
43683;BME280;29285;52.128;21.060;2022-07-22T14:46:43;100271.52;;;34.62;34.47
43683;BME280;29285;52.128;21.060;2022-07-22T14:51:44;100279.97;;;34.59;34.22
43683;BME280;29285;52.128;21.060;2022-07-22T14:56:45;100264.01;;;34.68;34.11
43683;BME280;29285;52.128;21.060;2022-07-22T15:01:46;100272.35;;;34.78;33.95
43683;BME280;29285;52.128;21.060;2022-07-22T15:06:47;100272.47;;;34.95;33.90
43683;BME280;29285;52.128;21.060;2022-07-22T15:11:49;100277.28;;;35.19;33.79
43683;BME280;29285;52.128;21.060;2022-07-22T15:16:51;100289.53;;;35.26;33.45
43683;BME280;29285;52.128;21.060;2022-07-22T15:21:52;100277.59;;;35.20;33.19
43683;BME280;29285;52.128;21.060;2022-07-22T15:26:54;100283.38;;;35.17;33.01
43683;BME280;29285;52.128;21.060;2022-07-22T15:31:55;100282.42;;;35.14;32.87
43683;BME280;29285;52.128;21.060;2022-07-22T15:36:56;100275.52;;;35.11;32.62
43683;BME280;29285;52.128;21.060;2022-07-22T15:41:57;100277.47;;;35.03;32.45
43683;BME280;29285;52.128;21.060;2022-07-22T15:46:58;100274.77;;;35.03;32.39
43683;BME280;29285;52.128;21.060;2022-07-22T15:52:00;100270.16;;;34.92;32.30
43683;BME280;29285;52.128;21.060;2022-07-22T15:57:01;100262.83;;;34.97;32.39
43683;BME280;29285;52.128;21.060;2022-07-22T16:02:21;100264.27;;;35.04;32.39
43683;BME280;29285;52.128;21.060;2022-07-22T16:07:22;100265.23;;;35.07;32.30
43683;BME280;29285;52.128;21.060;2022-07-22T16:12:24;100264.95;;;35.02;32.17
43683;BME280;29285;52.128;21.060;2022-07-22T16:17:26;100262.73;;;35.05;32.16
43683;BME280;29285;52.128;21.060;2022-07-22T16:22:27;100262.60;;;35.03;32.07
43683;BME280;29285;52.128;21.060;2022-07-22T16:27:28;100261.02;;;34.93;31.84
43683;BME280;29285;52.128;21.060;2022-07-22T16:32:30;100260.16;;;34.82;31.81
43683;BME280;29285;52.128;21.060;2022-07-22T16:37:31;100261.55;;;34.78;31.72
43683;BME280;29285;52.128;21.060;2022-07-22T16:42:32;100268.28;;;34.63;31.56
43683;BME280;29285;52.128;21.060;2022-07-22T16:47:33;100261.98;;;34.66;31.65
43683;BME280;29285;52.128;21.060;2022-07-22T16:52:35;100263.49;;;34.84;31.73
43683;BME280;29285;52.128;21.060;2022-07-22T16:57:36;100259.94;;;34.83;31.62
43683;BME280;29285;52.128;21.060;2022-07-22T17:02:37;100257.77;;;34.83;31.56
43683;BME280;29285;52.128;21.060;2022-07-22T17:07:39;100270.23;;;34.69;31.40
43683;BME280;29285;52.128;21.060;2022-07-22T17:12:40;100262.06;;;34.62;31.47
43683;BME280;29285;52.128;21.060;2022-07-22T17:17:42;100261.25;;;34.53;31.55
43683;BME280;29285;52.128;21.060;2022-07-22T17:22:43;100257.23;;;34.34;31.58
43683;BME280;29285;52.128;21.060;2022-07-22T17:27:44;100256.38;;;34.18;31.67
43683;BME280;29285;52.128;21.060;2022-07-22T17:32:45;100258.89;;;33.97;31.69
43683;BME280;29285;52.128;21.060;2022-07-22T17:37:46;100255.83;;;33.76;31.85
43683;BME280;29285;52.128;21.060;2022-07-22T17:42:48;100261.58;;;33.46;31.97
43683;BME280;29285;52.128;21.060;2022-07-22T17:47:49;100262.11;;;33.05;32.06
43683;BME280;29285;52.128;21.060;2022-07-22T17:52:50;100262.35;;;32.66;32.33
43683;BME280;29285;52.128;21.060;2022-07-22T17:57:52;100257.17;;;32.23;32.59
43683;BME280;29285;52.128;21.060;2022-07-22T18:02:53;100262.25;;;31.93;32.94
43683;BME280;29285;52.128;21.060;2022-07-22T18:07:54;100263.52;;;31.64;33.22
43683;BME280;29285;52.128;21.060;2022-07-22T18:12:55;100260.44;;;31.38;33.52
43683;BME280;29285;52.128;21.060;2022-07-22T18:17:56;100267.36;;;31.14;33.74
43683;BME280;29285;52.128;21.060;2022-07-22T18:22:57;100262.58;;;30.95;34.05
43683;BME280;29285;52.128;21.060;2022-07-22T18:27:58;100266.22;;;30.86;34.39
43683;BME280;29285;52.128;21.060;2022-07-22T18:32:59;100261.95;;;30.71;34.65
43683;BME280;29285;52.128;21.060;2022-07-22T18:38:01;100264.36;;;30.60;34.99
43683;BME280;29285;52.128;21.060;2022-07-22T18:43:03;100272.34;;;30.47;35.30
43683;BME280;29285;52.128;21.060;2022-07-22T18:48:04;100270.75;;;30.36;35.63
43683;BME280;29285;52.128;21.060;2022-07-22T18:53:06;100277.01;;;30.23;35.96
43683;BME280;29285;52.128;21.060;2022-07-22T18:58:07;100275.69;;;30.09;36.24
43683;BME280;29285;52.128;21.060;2022-07-22T19:03:09;100280.96;;;29.96;36.49
43683;BME280;29285;52.128;21.060;2022-07-22T19:08:10;100279.00;;;29.84;36.84
43683;BME280;29285;52.128;21.060;2022-07-22T19:13:11;100279.38;;;29.71;37.12
43683;BME280;29285;52.128;21.060;2022-07-22T19:18:13;100280.89;;;29.56;37.47
43683;BME280;29285;52.128;21.060;2022-07-22T19:23:15;100288.06;;;29.41;37.81
43683;BME280;29285;52.128;21.060;2022-07-22T19:28:17;100290.58;;;29.29;38.20
43683;BME280;29285;52.128;21.060;2022-07-22T19:33:18;100291.17;;;29.23;38.61
43683;BME280;29285;52.128;21.060;2022-07-22T19:38:19;100293.97;;;29.17;39.02
43683;BME280;29285;52.128;21.060;2022-07-22T19:43:20;100298.47;;;29.02;39.25
43683;BME280;29285;52.128;21.060;2022-07-22T19:48:22;100296.80;;;28.91;39.50
43683;BME280;29285;52.128;21.060;2022-07-22T19:53:23;100297.94;;;28.89;39.82
43683;BME280;29285;52.128;21.060;2022-07-22T19:58:25;100297.36;;;28.85;40.17
43683;BME280;29285;52.128;21.060;2022-07-22T20:03:26;100297.09;;;28.78;40.49
43683;BME280;29285;52.128;21.060;2022-07-22T20:08:28;100288.93;;;28.70;40.80
43683;BME280;29285;52.128;21.060;2022-07-22T20:13:29;100300.59;;;28.55;41.06
43683;BME280;29285;52.128;21.060;2022-07-22T20:18:30;100307.45;;;28.44;41.34
43683;BME280;29285;52.128;21.060;2022-07-22T20:23:31;100300.55;;;28.31;41.62
43683;BME280;29285;52.128;21.060;2022-07-22T20:28:33;100302.27;;;28.17;41.88
43683;BME280;29285;52.128;21.060;2022-07-22T20:33:35;100303.06;;;28.03;42.17
43683;BME280;29285;52.128;21.060;2022-07-22T20:38:37;100305.42;;;27.86;42.49
43683;BME280;29285;52.128;21.060;2022-07-22T20:43:38;100307.09;;;27.78;42.81
43683;BME280;29285;52.128;21.060;2022-07-22T20:48:39;100298.35;;;27.66;43.32
43683;BME280;29285;52.128;21.060;2022-07-22T20:53:40;100307.87;;;27.58;43.39
43683;BME280;29285;52.128;21.060;2022-07-22T20:58:42;100308.34;;;27.48;43.66
43683;BME280;29285;52.128;21.060;2022-07-22T21:03:43;100306.61;;;27.37;43.87
43683;BME280;29285;52.128;21.060;2022-07-22T21:08:45;100304.44;;;27.21;44.30
43683;BME280;29285;52.128;21.060;2022-07-22T21:13:48;100304.44;;;27.21;44.30
43683;BME280;29285;52.128;21.060;2022-07-22T21:18:50;100315.84;;;27.07;44.55
43683;BME280;29285;52.128;21.060;2022-07-22T21:23:51;100312.28;;;26.97;44.83
43683;BME280;29285;52.128;21.060;2022-07-22T21:28:52;100319.72;;;26.88;45.07
43683;BME280;29285;52.128;21.060;2022-07-22T21:33:53;100319.52;;;26.79;45.30
43683;BME280;29285;52.128;21.060;2022-07-22T21:38:55;100309.62;;;26.70;45.54
43683;BME280;29285;52.128;21.060;2022-07-22T21:43:56;100320.12;;;26.62;45.80
43683;BME280;29285;52.128;21.060;2022-07-22T21:48:57;100318.70;;;26.52;45.99
43683;BME280;29285;52.128;21.060;2022-07-22T21:53:58;100319.63;;;26.41;46.18
43683;BME280;29285;52.128;21.060;2022-07-22T21:59:00;100323.64;;;26.35;46.45
43683;BME280;29285;52.128;21.060;2022-07-22T22:04:02;100319.41;;;26.33;46.69
43683;BME280;29285;52.128;21.060;2022-07-22T22:09:04;100318.70;;;26.30;46.89
43683;BME280;29285;52.128;21.060;2022-07-22T22:14:05;100312.27;;;26.33;47.25
43683;BME280;29285;52.128;21.060;2022-07-22T22:19:08;100322.07;;;26.33;47.41
43683;BME280;29285;52.128;21.060;2022-07-22T22:24:09;100323.92;;;26.26;47.50
43683;BME280;29285;52.128;21.060;2022-07-22T22:29:11;100317.74;;;26.20;47.61
43683;BME280;29285;52.128;21.060;2022-07-22T22:34:13;100319.20;;;26.13;47.77
43683;BME280;29285;52.128;21.060;2022-07-22T22:39:14;100320.78;;;26.10;47.99
43683;BME280;29285;52.128;21.060;2022-07-22T22:44:15;100319.09;;;26.09;48.18
43683;BME280;29285;52.128;21.060;2022-07-22T22:49:17;100318.03;;;26.06;48.38
43683;BME280;29285;52.128;21.060;2022-07-22T22:54:18;100320.11;;;25.96;48.45
43683;BME280;29285;52.128;21.060;2022-07-22T22:59:19;100322.19;;;25.87;48.55
43683;BME280;29285;52.128;21.060;2022-07-22T23:04:20;100318.58;;;25.82;48.77
43683;BME280;29285;52.128;21.060;2022-07-22T23:09:21;100318.70;;;25.81;49.03
43683;BME280;29285;52.128;21.060;2022-07-22T23:14:23;100319.17;;;25.74;49.18
43683;BME280;29285;52.128;21.060;2022-07-22T23:19:24;100319.32;;;25.67;49.26
43683;BME280;29285;52.128;21.060;2022-07-22T23:24:25;100321.27;;;25.65;49.44
43683;BME280;29285;52.128;21.060;2022-07-22T23:29:27;100322.09;;;25.54;49.42
43683;BME280;29285;52.128;21.060;2022-07-22T23:34:28;100323.80;;;25.49;49.59
43683;BME280;29285;52.128;21.060;2022-07-22T23:39:30;100330.22;;;25.41;49.61
43683;BME280;29285;52.128;21.060;2022-07-22T23:44:31;100338.44;;;25.38;49.78
43683;BME280;29285;52.128;21.060;2022-07-22T23:49:32;100335.16;;;25.29;49.85
43683;BME280;29285;52.128;21.060;2022-07-22T23:54:33;100331.92;;;25.19;49.90
43683;BME280;29285;52.128;21.060;2022-07-22T23:59:35;100329.71;;;25.13;50.04
